Yarmouth, United Kingdom
Current Conditions -  °F | °C
As of 7:50 AM on Friday 19 Dec 2014 (Local Time) from EGHI Reporting Station
Broken Clouds Broken Clouds  
Wind Chill: 52°   Ceiling: 4400
Heat Index: 52°   Visibility: 5mi
Dew Point: 46°   Wind: 12mph
Humidity: 82%   Direction: 280°W
Pressure: 29.91"   Gusts: NA
Location:  50.71°N, 1.5°W
Report Text: EGHI 190750Z 28010KT 240V320 8000 SCT034 BKN044 11/08 Q1013
Loading
Personal Weather Stations






























Interactive Weather Map New forecast layout! Learn more

10-Day Weather Forecast

Advertisements
Track Severe Weather on mobile